Flugplatz Memmingen Allgau

Bericht für EDJA

vom 18.01. um 16:50 UTC

Wind 11 kt aus 230°

Sichtweite 10 km oder mehr

gering bewölkt in 4000 ft

aufgelockert bewölkt in 4700 ft

bedeckt in 5300 ft

Temperatur 2.0°C

Taupunkt -1.0°C

Luftfeuchtigkeit 80%

Luftdruck 1026 hPa

EDJA 181650Z 23011KT 9999 FEW040 SCT047 OVC053 02/M01 Q1026

Prognose für EDJA

vom 18.01. um 00:00 UTC

Zwischen 00:00 UTC und 00:00 UTC zeitweise mit einer Wahrscheinlichkeit von 30%

Sichtweite 2000 m

schwacher Schneeschauer

Code: SHR

aufgebrochene Bewölkung in 1200 ft


Zwischen 00:00 UTC und 00:00 UTC

Wind 8 kt aus 220°

Sichtweite 10 km oder mehr

aufgelockert bewölkt in 2000 ft


Zwischen 00:00 UTC und 00:00 UTC zeitweise mit einer Wahrscheinlichkeit von 30%

Sichtweite 1200 m

schwacher Schneeschauer

aufgebrochene Bewölkung in 600 ft

TAF EDJA 181400Z 1815/1824 22008KT 9999 SCT020 PROB30 TEMPO 1815/1820 2000 -SHSNRA BKN012TCU PROB30 TEMPO 1820/1824 1200 -SHSN BKN006TCU
Impressum